createdAt,value
2018-07-28T00:01:02.397Z,8.30
2018-07-28T00:03:32.277Z,7.97
2018-07-28T00:06:02.825Z,7.70
2018-07-28T00:08:32.684Z,8.00
2018-07-28T00:11:02.532Z,8.00
2018-07-28T00:13:32.331Z,9.00
2018-07-28T00:16:02.218Z,8.07
2018-07-28T00:18:32.165Z,7.60
2018-07-28T00:21:02.567Z,7.07
2018-07-28T00:23:32.046Z,8.57
2018-07-28T00:26:07.014Z,7.30
2018-07-28T00:28:36.434Z,7.40
2018-07-28T00:31:05.734Z,8.20
2018-07-28T00:33:35.313Z,7.60
2018-07-28T00:36:06.441Z,8.77
2018-07-28T00:38:36.323Z,8.17
2018-07-28T00:41:06.417Z,7.83
2018-07-28T00:43:36.331Z,7.40
2018-07-28T00:46:06.855Z,7.53
2018-07-28T00:48:36.624Z,8.60
2018-07-28T00:51:07.365Z,7.20
2018-07-28T00:53:37.133Z,8.70
2018-07-28T00:56:07.300Z,8.73
2018-07-28T00:58:37.129Z,8.17
2018-07-28T01:01:07.303Z,7.60
2018-07-28T01:03:37.095Z,8.17
2018-07-28T01:06:07.179Z,7.60
2018-07-28T01:08:37.473Z,7.50
2018-07-28T01:11:07.328Z,7.53
2018-07-28T01:13:37.663Z,7.70
2018-07-28T01:16:07.533Z,7.97
2018-07-28T01:18:37.468Z,8.07
2018-07-28T01:21:07.888Z,8.60
2018-07-28T01:23:37.708Z,9.07
2018-07-28T01:26:07.562Z,8.70
2018-07-28T01:28:38.880Z,7.20
2018-07-28T01:31:08.918Z,7.67
2018-07-28T01:33:38.724Z,9.60
2018-07-28T01:36:09.097Z,8.00
2018-07-28T01:38:38.913Z,7.03
2018-07-28T01:41:08.750Z,7.30
2018-07-28T01:43:38.225Z,7.90
2018-07-28T01:46:07.781Z,8.23
2018-07-28T01:48:37.571Z,7.83
2018-07-28T01:51:07.366Z,8.33
2018-07-28T01:53:37.728Z,8.47
2018-07-28T01:56:07.988Z,8.00
2018-07-28T01:58:37.766Z,7.80
2018-07-28T02:01:07.592Z,7.60
2018-07-28T02:03:38.048Z,7.33
2018-07-28T02:06:07.829Z,8.40
2018-07-28T02:08:37.622Z,7.70
2018-07-28T02:11:07.388Z,7.10
2018-07-28T02:13:37.504Z,6.97
2018-07-28T02:16:07.502Z,7.70
2018-07-28T02:18:37.502Z,7.70
2018-07-28T02:21:07.313Z,8.17
2018-07-28T02:23:37.117Z,7.97
2018-07-28T02:26:07.038Z,8.00
2018-07-28T02:28:36.841Z,7.47
2018-07-28T02:31:06.596Z,7.60
2018-07-28T02:33:36.373Z,7.80
2018-07-28T02:36:06.191Z,7.90
2018-07-28T02:38:35.676Z,8.60
2018-07-28T02:41:06.171Z,8.27
2018-07-28T02:43:35.935Z,8.70
2018-07-28T02:46:05.836Z,7.80
2018-07-28T02:48:36.297Z,7.67
2018-07-28T02:51:06.124Z,7.50
2018-07-28T02:53:39.605Z,8.10
2018-07-28T02:56:09.734Z,7.83
2018-07-28T02:58:39.698Z,7.20
2018-07-28T03:01:10.234Z,7.67
2018-07-28T03:03:40.471Z,8.33
2018-07-28T03:06:10.289Z,7.57
2018-07-28T03:08:39.756Z,8.83
2018-07-28T03:11:09.347Z,8.20
2018-07-28T03:13:39.168Z,8.27
2018-07-28T03:16:13.003Z,7.63
2018-07-28T03:18:42.885Z,7.40
2018-07-28T03:21:12.656Z,8.30
2018-07-28T03:23:42.437Z,8.03
2018-07-28T03:26:11.900Z,7.70
2018-07-28T03:28:41.483Z,7.80
2018-07-28T03:31:11.225Z,7.90
2018-07-28T03:33:41.589Z,7.60
2018-07-28T03:36:11.996Z,7.33
2018-07-28T03:38:41.809Z,8.63
2018-07-28T03:41:13.041Z,7.00
2018-07-28T03:43:42.826Z,7.57
2018-07-28T03:46:12.777Z,7.30
2018-07-28T03:48:42.648Z,8.07
2018-07-28T03:51:12.384Z,8.00
2018-07-28T03:53:42.168Z,7.63
2018-07-28T03:56:12.476Z,8.00
2018-07-28T03:58:42.205Z,7.90
2018-07-28T04:01:11.975Z,8.00
2018-07-28T04:03:41.784Z,7.30
2018-07-28T04:06:12.213Z,7.90
2018-07-28T04:08:42.028Z,8.40
2018-07-28T04:11:11.789Z,7.97
2018-07-28T04:13:41.612Z,7.83
2018-07-28T04:16:12.697Z,8.17
2018-07-28T04:18:42.468Z,8.20
2018-07-28T04:21:11.945Z,9.17
2018-07-28T04:23:42.171Z,7.60
2018-07-28T04:26:11.965Z,7.40
2018-07-28T04:28:41.792Z,7.90
2018-07-28T04:31:11.504Z,8.87
2018-07-28T04:33:41.281Z,8.57
2018-07-28T04:36:11.056Z,8.63
2018-07-28T04:38:40.891Z,9.10
2018-07-28T04:41:10.657Z,8.13
2018-07-28T04:43:40.403Z,7.60
2018-07-28T04:46:09.914Z,9.70
2018-07-28T04:48:39.442Z,8.50
2018-07-28T04:51:09.208Z,8.17
2018-07-28T04:53:39.228Z,9.23
2018-07-28T04:56:09.772Z,8.83
2018-07-28T04:58:39.793Z,9.13
2018-07-28T05:01:09.591Z,9.30
2018-07-28T05:03:39.369Z,8.53
2018-07-28T05:06:09.197Z,8.80
2018-07-28T05:08:38.968Z,9.80
2018-07-28T05:11:08.781Z,9.07
2018-07-28T05:13:38.561Z,9.27
2018-07-28T05:16:08.436Z,9.67
2018-07-28T05:18:38.217Z,9.37
2018-07-28T05:21:08.011Z,8.90
2018-07-28T05:23:37.813Z,9.80
2018-07-28T05:26:07.603Z,9.77
2018-07-28T05:28:37.444Z,9.30
2018-07-28T05:31:07.348Z,9.17
2018-07-28T05:33:37.154Z,10.30
2018-07-28T05:36:06.950Z,11.70
2018-07-28T05:38:36.758Z,10.70
2018-07-28T05:41:06.729Z,9.03
2018-07-28T05:43:37.181Z,8.77
2018-07-28T05:46:06.977Z,9.20
2018-07-28T05:48:36.772Z,9.30
2018-07-28T05:51:07.301Z,8.80
2018-07-28T05:53:39.881Z,9.47
2018-07-28T05:56:11.448Z,9.47
2018-07-28T05:58:42.096Z,8.83
2018-07-28T06:01:11.879Z,8.97
2018-07-28T06:03:42.356Z,9.27
2018-07-28T06:06:12.659Z,9.23
2018-07-28T06:08:42.152Z,9.60
2018-07-28T06:11:11.856Z,9.40
2018-07-28T06:13:41.706Z,9.50
2018-07-28T06:16:12.256Z,9.53
2018-07-28T06:18:42.090Z,9.53
2018-07-28T06:21:12.606Z,9.70
2018-07-28T06:23:43.016Z,9.13
2018-07-28T06:26:13.580Z,9.77
2018-07-28T06:28:43.345Z,9.60
2018-07-28T06:31:13.217Z,9.17
2018-07-28T06:33:43.829Z,8.73
2018-07-28T06:36:13.816Z,9.37
2018-07-28T06:38:43.681Z,9.57
2018-07-28T06:41:13.494Z,9.73
2018-07-28T06:43:43.262Z,8.80
2018-07-28T06:46:13.134Z,12.10
2018-07-28T06:48:42.926Z,10.07
2018-07-28T06:51:12.807Z,9.07
2018-07-28T06:53:43.005Z,9.63
2018-07-28T06:56:12.893Z,9.60
2018-07-28T06:58:43.555Z,8.67
2018-07-28T07:01:13.322Z,8.40
2018-07-28T07:03:43.152Z,9.30
2018-07-28T07:06:12.993Z,9.30
2018-07-28T07:08:42.784Z,10.10
2018-07-28T07:11:12.596Z,8.83
2018-07-28T07:13:42.419Z,9.27
2018-07-28T07:16:12.204Z,9.10
2018-07-28T07:18:42.011Z,9.23
2018-07-28T07:21:11.900Z,9.20
2018-07-28T07:23:42.463Z,8.20
2018-07-28T07:26:12.255Z,8.83
2018-07-28T07:28:42.884Z,8.80
2018-07-28T07:31:13.446Z,9.20
2018-07-28T07:33:44.914Z,8.90
2018-07-28T07:36:15.555Z,9.60
2018-07-28T07:38:45.316Z,9.60
2018-07-28T07:41:15.134Z,9.83
2018-07-28T07:43:44.915Z,9.63
2018-07-28T07:46:14.717Z,9.67
2018-07-28T07:48:45.653Z,9.47
2018-07-28T07:51:16.284Z,9.67
2018-07-28T07:53:46.736Z,10.30
2018-07-28T07:56:17.266Z,9.83
2018-07-28T07:58:47.130Z,11.50
2018-07-28T08:01:16.910Z,11.27
2018-07-28T08:03:46.722Z,10.30
2018-07-28T08:06:16.550Z,11.03
2018-07-28T08:08:46.679Z,9.53
2018-07-28T08:11:16.537Z,10.30
2018-07-28T08:13:46.322Z,10.07
2018-07-28T08:16:16.096Z,8.23
2018-07-28T08:18:45.902Z,9.13
2018-07-28T08:21:15.732Z,9.60
2018-07-28T08:23:45.574Z,10.03
2018-07-28T08:26:16.157Z,8.70
2018-07-28T08:28:46.457Z,9.90
2018-07-28T08:31:16.368Z,9.50
2018-07-28T08:33:46.183Z,9.37
2018-07-28T08:36:16.696Z,10.03
2018-07-28T08:38:46.275Z,10.33
2018-07-28T08:41:16.865Z,9.50
2018-07-28T08:43:46.668Z,9.50
2018-07-28T08:46:17.174Z,8.73
2018-07-28T08:48:47.578Z,9.93
2018-07-28T08:51:17.136Z,8.70
2018-07-28T08:53:47.545Z,9.53
2018-07-28T08:56:17.696Z,9.73
2018-07-28T08:58:48.329Z,10.03
2018-07-28T09:01:18.148Z,9.60
2018-07-28T09:03:47.998Z,9.10
2018-07-28T09:06:17.833Z,9.10
2018-07-28T09:08:47.651Z,9.53
2018-07-28T09:11:19.117Z,8.70
2018-07-28T09:13:49.608Z,9.10
2018-07-28T09:16:20.227Z,8.70
2018-07-28T09:18:50.638Z,9.03
2018-07-28T09:21:20.471Z,8.63
2018-07-28T09:23:51.041Z,7.10
2018-07-28T09:26:20.807Z,8.03
2018-07-28T09:28:51.350Z,7.50
2018-07-28T09:31:21.157Z,8.23
2018-07-28T09:33:51.749Z,8.10
2018-07-28T09:36:21.572Z,8.97
2018-07-28T09:38:52.448Z,8.67
2018-07-28T09:41:22.239Z,8.57
2018-07-28T09:43:52.013Z,8.80
2018-07-28T09:46:22.690Z,9.17
2018-07-28T09:48:52.493Z,9.90
2018-07-28T09:51:22.643Z,10.20
2018-07-28T09:53:53.121Z,10.37
2018-07-28T09:56:22.928Z,9.10
2018-07-28T09:58:52.728Z,9.70
2018-07-28T10:01:23.997Z,10.27
2018-07-28T10:03:54.344Z,9.87
2018-07-28T10:06:24.223Z,10.47
2018-07-28T10:08:54.095Z,11.53
2018-07-28T10:11:23.874Z,12.60
2018-07-28T10:13:53.720Z,11.10
2018-07-28T10:16:24.333Z,12.50
2018-07-28T10:18:54.385Z,11.13
2018-07-28T10:21:24.206Z,12.27
2018-07-28T10:23:54.106Z,11.53
2018-07-28T10:26:24.523Z,12.27
2018-07-28T10:28:55.414Z,11.50
2018-07-28T10:31:25.225Z,12.20
2018-07-28T10:33:55.289Z,13.83
2018-07-28T10:36:25.858Z,10.70
2018-07-28T10:38:56.483Z,11.70
2018-07-28T10:41:26.628Z,11.37
2018-07-28T10:43:56.847Z,11.10
2018-07-28T10:46:27.144Z,10.37
2018-07-28T10:48:57.667Z,9.20
2018-07-28T10:51:27.566Z,8.83
2018-07-28T10:53:58.204Z,9.77
2018-07-28T10:56:28.045Z,9.37
2018-07-28T10:58:59.324Z,9.47
2018-07-28T11:01:30.164Z,10.23
2018-07-28T11:04:00.766Z,9.20
2018-07-28T11:06:31.162Z,8.80
2018-07-28T11:09:01.112Z,9.13
2018-07-28T11:11:30.961Z,10.33
2018-07-28T11:14:00.462Z,9.30
2018-07-28T11:16:30.244Z,9.53
2018-07-28T11:19:01.371Z,10.20
2018-07-28T11:21:32.029Z,10.50
2018-07-28T11:24:02.692Z,10.93
2018-07-28T11:26:32.644Z,10.10
2018-07-28T11:29:02.242Z,11.60
2018-07-28T11:31:43.367Z,11.67
2018-07-28T11:34:24.461Z,11.33
2018-07-28T11:37:05.716Z,11.87
2018-07-28T11:40:48.479Z,10.60
2018-07-28T11:43:29.568Z,11.77
2018-07-28T11:45:59.683Z,12.50
2018-07-28T11:48:30.124Z,9.60
2018-07-28T11:51:00.658Z,10.70
2018-07-28T11:53:30.612Z,10.73
2018-07-28T11:56:00.626Z,10.40
2018-07-28T11:58:30.631Z,10.47
2018-07-28T12:01:01.130Z,10.90
2018-07-28T12:03:31.130Z,10.40
2018-07-28T12:06:01.594Z,9.90
2018-07-28T12:08:32.161Z,9.50
2018-07-28T12:11:02.012Z,9.80
2018-07-28T12:13:31.886Z,10.50
2018-07-28T12:16:01.705Z,9.80
2018-07-28T12:18:31.514Z,9.33
2018-07-28T12:21:01.321Z,9.03
2018-07-28T12:23:31.180Z,9.00
2018-07-28T12:26:01.628Z,9.27
2018-07-28T12:28:32.241Z,8.40
2018-07-28T12:31:02.712Z,8.53
2018-07-28T12:33:32.501Z,8.37
2018-07-28T12:36:02.336Z,6.53
2018-07-28T12:38:32.139Z,7.80
2018-07-28T12:41:01.991Z,7.60
2018-07-28T12:43:31.807Z,7.50
2018-07-28T12:46:02.164Z,8.50
2018-07-28T12:48:32.546Z,7.90
2018-07-28T12:51:02.485Z,8.07
2018-07-28T12:53:33.471Z,28.27
2018-07-28T12:56:03.386Z,8.57
2018-07-28T12:58:33.173Z,8.60
2018-07-28T13:01:04.292Z,7.70
2018-07-28T13:03:34.817Z,7.93
2018-07-28T13:06:05.366Z,7.70
2018-07-28T13:08:35.856Z,8.30
2018-07-28T13:11:05.752Z,19.30
2018-07-28T13:13:36.796Z,12.83
2018-07-28T13:16:08.008Z,7.30
2018-07-28T13:18:37.781Z,7.03
2018-07-28T13:21:07.343Z,8.33
2018-07-28T13:23:36.994Z,7.53
2018-07-28T13:26:07.025Z,7.73
2018-07-28T13:28:36.944Z,7.30
2018-07-28T13:31:06.749Z,7.60
2018-07-28T13:33:37.347Z,7.37
2018-07-28T13:36:07.294Z,7.50
2018-07-28T13:38:37.775Z,7.50
2018-07-28T13:41:07.760Z,7.90
2018-07-28T13:43:38.893Z,8.07
2018-07-28T13:46:08.992Z,8.50
2018-07-28T13:48:39.106Z,7.33
2018-07-28T13:51:09.317Z,8.10
2018-07-28T13:53:39.130Z,7.57
2018-07-28T13:56:10.469Z,7.30
2018-07-28T13:58:40.754Z,8.67
2018-07-28T14:01:10.173Z,7.80
2018-07-28T14:03:39.939Z,7.50
2018-07-28T14:06:10.346Z,7.20
2018-07-28T14:08:40.075Z,7.37
2018-07-28T14:11:10.037Z,7.20
2018-07-28T14:13:39.714Z,7.47
2018-07-28T14:16:09.984Z,8.00
2018-07-28T14:18:39.831Z,7.83
2018-07-28T14:21:10.876Z,7.50
2018-07-28T14:23:40.726Z,6.87
2018-07-28T14:26:10.835Z,7.90
2018-07-28T14:28:41.220Z,7.83
2018-07-28T14:31:11.083Z,7.80
2018-07-28T14:33:40.891Z,8.57
2018-07-28T14:36:10.751Z,8.60
2018-07-28T14:41:16.845Z,8.33
2018-07-28T14:43:46.682Z,9.70
2018-07-28T14:46:17.031Z,9.50
2018-07-28T14:48:47.700Z,9.30
2018-07-28T14:51:18.134Z,9.47
2018-07-28T14:53:48.677Z,9.97
2018-07-28T14:56:18.579Z,9.40
2018-07-28T14:58:48.046Z,9.50
2018-07-28T15:01:17.749Z,9.40
2018-07-28T15:03:48.183Z,11.03
2018-07-28T15:06:18.744Z,9.20
2018-07-28T15:08:49.157Z,10.43
2018-07-28T15:11:19.051Z,9.90
2018-07-28T15:13:48.949Z,9.47
2018-07-28T15:16:19.296Z,9.93
2018-07-28T15:18:50.420Z,10.40
2018-07-28T15:21:20.249Z,9.33
2018-07-28T15:23:51.384Z,8.73
2018-07-28T15:26:20.932Z,9.90
2018-07-28T15:28:52.053Z,9.40
2018-07-28T15:31:22.386Z,9.30
2018-07-28T15:33:52.217Z,8.93
2018-07-28T15:36:22.016Z,9.10
2018-07-28T15:38:53.197Z,9.70
2018-07-28T15:41:23.247Z,8.73
2018-07-28T15:43:53.056Z,11.70
2018-07-28T15:46:22.864Z,10.17
2018-07-28T15:48:53.446Z,9.83
2018-07-28T15:51:23.244Z,9.80
2018-07-28T15:53:53.625Z,10.37
2018-07-28T15:56:23.450Z,9.60
2018-07-28T15:58:53.718Z,9.43
2018-07-28T16:01:24.286Z,9.97
2018-07-28T16:03:54.132Z,10.60
2018-07-28T16:06:24.730Z,9.30
2018-07-28T16:08:54.560Z,8.83
2018-07-28T16:11:25.024Z,10.50
2018-07-28T16:13:54.982Z,9.43
2018-07-28T16:16:24.666Z,7.83
2018-07-28T16:18:54.246Z,6.63
2018-07-28T16:21:24.307Z,8.07
2018-07-28T16:23:54.081Z,12.03
2018-07-28T16:26:24.640Z,12.90
2018-07-28T16:28:54.588Z,14.13
2018-07-28T16:31:24.421Z,17.43
2018-07-28T16:33:54.230Z,18.97
2018-07-28T16:36:24.036Z,10.77
2018-07-28T16:38:53.942Z,9.47
2018-07-28T16:41:23.449Z,10.63
2018-07-28T16:43:53.073Z,11.13
2018-07-28T16:46:23.720Z,6.87
2018-07-28T16:48:53.969Z,10.67
2018-07-28T16:51:23.757Z,12.30
2018-07-28T16:53:53.709Z,13.77
2018-07-28T16:56:23.584Z,14.47
2018-07-28T16:58:53.559Z,14.43
2018-07-28T17:01:23.305Z,14.13
2018-07-28T17:03:53.320Z,13.67
2018-07-28T17:06:23.203Z,16.90
2018-07-28T17:08:53.035Z,20.97
2018-07-28T17:11:23.829Z,19.73
2018-07-28T17:13:53.745Z,20.43
2018-07-28T17:16:23.454Z,22.10
2018-07-28T17:18:53.381Z,20.13
2018-07-28T17:21:23.192Z,24.73
2018-07-28T17:23:53.817Z,22.47
2018-07-28T17:26:23.864Z,21.30
2018-07-28T17:28:53.712Z,25.27
2018-07-28T17:31:25.215Z,27.00
2018-07-28T17:33:55.041Z,31.00
2018-07-28T17:36:25.715Z,32.80
2018-07-28T17:38:55.243Z,32.33
2018-07-28T17:41:24.929Z,36.73
2018-07-28T17:44:03.635Z,47.90
2018-07-28T18:09:24.537Z,30.07
2018-07-28T18:11:54.603Z,32.83
2018-07-28T18:14:24.444Z,26.37
2018-07-28T18:16:54.920Z,26.30
2018-07-28T18:19:25.993Z,27.40
2018-07-28T18:21:56.141Z,30.80
2018-07-28T18:24:25.855Z,30.97
2018-07-28T18:26:56.705Z,31.67
2018-07-28T18:29:27.759Z,30.57
2018-07-28T18:31:57.570Z,29.40
2018-07-28T18:34:27.353Z,32.60
2018-07-28T18:36:57.237Z,29.10
2018-07-28T18:39:27.133Z,30.60
2018-07-28T18:41:57.113Z,29.70
2018-07-28T18:44:26.934Z,32.40
2018-07-28T18:46:58.381Z,26.07
2018-07-28T18:49:28.191Z,23.20
2018-07-28T18:51:58.060Z,23.10
2018-07-28T18:54:27.917Z,26.30
2018-07-28T18:56:58.370Z,27.20
2018-07-28T18:59:28.213Z,28.47
2018-07-28T19:01:59.642Z,26.73
2018-07-28T19:04:29.465Z,29.20
2018-07-28T19:06:59.399Z,26.87
2018-07-28T19:09:35.267Z,28.90
2018-07-28T19:12:05.769Z,29.63
2018-07-28T19:14:38.112Z,29.07
2018-07-28T19:17:09.144Z,30.77
2018-07-28T19:19:39.953Z,32.57
2018-07-28T19:22:15.142Z,34.70
2018-07-28T19:24:44.693Z,28.30
2018-07-28T19:27:14.339Z,27.87
2018-07-28T19:29:45.175Z,28.33
2018-07-28T19:32:15.563Z,30.40
2018-07-28T19:34:45.388Z,31.20
2018-07-28T19:37:18.490Z,32.33
2018-07-28T19:39:48.309Z,30.90
2018-07-28T19:42:23.586Z,28.93
2018-07-28T19:44:53.100Z,28.17
2018-07-28T19:47:22.396Z,32.87
2018-07-28T19:49:53.357Z,30.53
2018-07-28T19:52:24.709Z,28.60
2018-07-28T19:54:54.495Z,34.07
2018-07-28T19:57:24.348Z,29.03
2018-07-28T19:59:54.407Z,30.17
2018-07-28T20:12:09.237Z,30.57
2018-07-28T20:14:39.038Z,31.30
2018-07-28T20:17:09.639Z,30.03
2018-07-28T20:19:40.162Z,31.30
2018-07-28T20:22:10.076Z,31.70
2018-07-28T20:24:40.559Z,33.13
2018-07-28T20:27:12.023Z,32.87
2018-07-28T20:29:43.267Z,32.43
2018-07-28T20:32:14.000Z,30.73
2018-07-28T20:34:43.973Z,30.70
2018-07-28T20:37:14.668Z,31.83
2018-07-28T20:39:45.261Z,31.50
2018-07-28T20:42:15.829Z,31.07
2018-07-28T20:44:45.613Z,30.63
2018-07-28T20:47:15.934Z,32.20
2018-07-28T20:49:46.488Z,28.83
2018-07-28T20:52:16.311Z,28.53
2018-07-28T20:54:46.045Z,28.87
2018-07-28T20:57:16.518Z,31.97
2018-07-28T20:59:48.366Z,29.90
2018-07-28T21:02:18.246Z,26.07
2018-07-28T21:04:48.857Z,30.23
2018-07-28T21:07:18.813Z,30.30
2018-07-28T21:09:49.447Z,30.93
2018-07-28T21:12:19.308Z,33.33
2018-07-28T21:14:49.273Z,31.40
2018-07-28T21:17:19.134Z,31.67
2018-07-28T21:19:49.023Z,30.67
2018-07-28T21:22:19.965Z,30.50
2018-07-28T21:24:50.104Z,34.60
2018-07-28T21:27:20.716Z,31.57
2018-07-28T21:29:50.276Z,29.03
2018-07-28T21:32:19.897Z,32.97
2018-07-28T21:34:49.687Z,31.10
2018-07-28T21:37:20.073Z,26.80
2018-07-28T21:39:50.183Z,31.40
2018-07-28T21:42:20.343Z,28.63
2018-07-28T21:44:50.411Z,30.10
2018-07-28T21:47:20.903Z,30.33
2018-07-28T21:49:57.344Z,32.47
2018-07-28T21:52:28.268Z,30.60
2018-07-28T21:54:58.104Z,33.10
2018-07-28T21:57:28.004Z,29.17
2018-07-28T21:59:57.805Z,31.43
2018-07-28T22:02:28.365Z,33.17
2018-07-28T22:05:00.528Z,40.67
2018-07-28T22:07:30.306Z,31.07
2018-07-28T22:10:00.116Z,34.23
2018-07-28T22:12:31.570Z,33.20
2018-07-28T22:15:01.364Z,33.67
2018-07-28T22:17:31.196Z,33.63
2018-07-28T22:20:07.473Z,33.30
2018-07-28T22:22:37.385Z,32.00
2018-07-28T22:25:07.414Z,36.37
2018-07-28T22:27:38.084Z,33.53
2018-07-28T22:30:08.068Z,35.77
2018-07-28T22:32:38.365Z,34.20
2018-07-28T22:35:08.920Z,35.07
2018-07-28T22:37:38.810Z,36.20
2018-07-28T22:40:09.440Z,34.90
2018-07-28T22:42:49.939Z,33.90
2018-07-28T22:45:21.048Z,35.73
2018-07-28T22:47:51.670Z,36.80
2018-07-28T22:50:23.073Z,36.33
2018-07-28T22:52:52.936Z,36.40
2018-07-28T22:55:22.934Z,35.57
2018-07-28T22:57:53.581Z,32.30
2018-07-28T23:00:23.452Z,36.90
2018-07-28T23:02:53.267Z,36.50
2018-07-28T23:05:23.601Z,37.60
2018-07-28T23:07:54.826Z,41.30
2018-07-28T23:10:24.645Z,37.33
2018-07-28T23:12:55.048Z,36.50
2018-07-28T23:15:24.661Z,34.87
2018-07-28T23:17:54.701Z,34.33
2018-07-28T23:20:25.289Z,31.50
2018-07-28T23:22:55.741Z,34.67
2018-07-28T23:25:25.556Z,30.20
2018-07-28T23:27:55.434Z,32.70
2018-07-28T23:30:25.953Z,31.80
2018-07-28T23:32:55.968Z,31.17
2018-07-28T23:35:25.763Z,30.50
2018-07-28T23:37:55.792Z,29.57
2018-07-28T23:40:26.305Z,27.50
2018-07-28T23:42:56.148Z,30.53
2018-07-28T23:45:25.997Z,28.70
2018-07-28T23:47:56.103Z,29.00
2018-07-28T23:50:25.960Z,27.63
2018-07-28T23:52:55.767Z,28.73
2018-07-28T23:55:26.280Z,27.47
2018-07-28T23:57:56.273Z,31.00
